Terminal Aerodrome Forecast
Issued by NWS

Home | Current Version | Previous Version | Text Only | Print | Product List | Glossary Off
Versions: 1 2 3 4 5 6 7 8 9 10 11 12 13

659
FTUS42 KMHX 101131
TAFISO
TAF
KISO 101131Z 1012/1112 24005KT P6SM SKC
     FM101500 27010G17KT P6SM BKN045
     FM110000 25005KT P6SM SKC
      AMD LTD TO CLD VIS AND WIND=

USA.gov is the U.S. government's official web portal to all federal, state and local government web resources and services.